メインページ
METAR-TAF:

METAR-TAF

空港 :

マレ, Hulhule Island, モルディブ

イブラヒム・ナシル国際空港

緯度: 04-12N, 経度: 073-32E, 海抜: 2m

現時点の気象観測

当レポートは1時間44分前の13:00(UTC)に作成
西の風 7kt
気温 30°C
湿度 75%
気圧 1010 hPa
視程10km以上
高度1700ftの雲はほとんどない
高度1800ftの雲はほとんどない, 積乱雲.
高度27000ftの千切れ雲あり
近辺でにわか雨

METAR: VRMM 271300Z 27007KT 9999 VCSH FEW017 FEW018CB BKN270 30/25 Q1010 CB ENE,SE,S,W,NW TEMPO 5000 -SHRA

時間: 19:44 (14:44 UTC)

予報

当レポートは3時間44分前の11:00(UTC)に作成
予報は27日の 12時(UTC)から 28日の 18時(UTC)まで有効
西の風 9kt
視程10km以上
高度1800ftの雲はほとんどない
27日の 15時(UTC)から 27日の 21時(UTC)まで一時的に
視程: 5000m
高度1600ftの雲は散在している
高度1700ftの雲はほとんどない, 積乱雲.
弱いにわか雨

TAF: VRMM 271100Z 2712/2818 27009KT 9999 FEW018 TEMPO 2715/2721 5000 -SHRA SCT016 FEW017CB

4,000以上の空港の気象観測と天気予報(METAR報とTAF報)

利用可能な観測所は地図上に黄色い丸と赤い丸で示す。

丸の上にカーソルを重ねると観測所名を参照できる。

次にクリックすると気象観測と天気予報を参照できる。

マップの切り替え:黒色「×」印の緑ボタンをクリックして拡大、「-」印の緑ボタンをクリックして縮小、緑色の三角印をクリックして隣りの地図に切り替え


METAR-TAF: